createdAt,value
2018-07-15T00:02:25.786Z,73.30
2018-07-15T00:04:54.146Z,73.20
2018-07-15T00:07:22.528Z,73.20
2018-07-15T00:09:52.405Z,73.20
2018-07-15T00:12:20.646Z,73.20
2018-07-15T00:14:49.074Z,73.10
2018-07-15T00:17:17.478Z,73.10
2018-07-15T00:19:45.738Z,73.00
2018-07-15T00:22:13.982Z,73.00
2018-07-15T00:24:42.261Z,73.60
2018-07-15T00:27:10.586Z,72.90
2018-07-15T00:29:38.831Z,72.90
2018-07-15T00:32:07.403Z,72.90
2018-07-15T00:34:35.653Z,72.80
2018-07-15T00:37:04.109Z,72.80
2018-07-15T00:39:32.433Z,72.80
2018-07-15T00:42:00.698Z,72.70
2018-07-15T00:44:28.963Z,73.30
2018-07-15T00:46:57.574Z,72.60
2018-07-15T00:49:25.823Z,72.60
2018-07-15T00:51:54.131Z,72.60
2018-07-15T00:54:22.438Z,72.50
2018-07-15T00:56:50.942Z,72.50
2018-07-15T00:59:19.270Z,72.50
2018-07-15T01:01:47.544Z,72.50
2018-07-15T01:04:22.362Z,72.50
2018-07-15T01:06:50.782Z,73.00
2018-07-15T01:09:21.592Z,72.40
2018-07-15T01:11:49.930Z,72.30
2018-07-15T01:14:18.208Z,72.30
2018-07-15T01:16:46.442Z,72.30
2018-07-15T01:19:14.681Z,72.20
2018-07-15T01:21:43.086Z,72.20
2018-07-15T01:24:11.362Z,72.10
2018-07-15T01:26:39.671Z,72.20
2018-07-15T01:29:09.758Z,72.20
2018-07-15T01:31:38.022Z,72.10
2018-07-15T01:34:06.442Z,72.10
2018-07-15T01:36:34.807Z,72.10
2018-07-15T01:39:03.156Z,72.00
2018-07-15T01:41:31.402Z,72.00
2018-07-15T01:44:00.225Z,72.00
2018-07-15T01:46:28.498Z,72.00
2018-07-15T01:48:56.717Z,71.90
2018-07-15T01:51:25.665Z,71.90
2018-07-15T01:53:53.926Z,71.80
2018-07-15T01:56:22.179Z,71.80
2018-07-15T01:58:50.916Z,71.80
2018-07-15T02:01:19.154Z,71.80
2018-07-15T02:03:47.412Z,71.80
2018-07-15T02:06:16.162Z,71.70
2018-07-15T02:08:45.356Z,71.70
2018-07-15T02:11:13.606Z,71.70
2018-07-15T02:13:41.896Z,71.70
2018-07-15T02:16:10.157Z,71.70
2018-07-15T02:18:38.498Z,71.70
2018-07-15T02:21:06.949Z,71.70
2018-07-15T02:23:35.475Z,71.70
2018-07-15T02:26:03.852Z,71.70
2018-07-15T02:28:33.602Z,71.70
2018-07-15T02:31:01.858Z,71.70
2018-07-15T02:33:30.081Z,71.60
2018-07-15T02:35:58.346Z,71.60
2018-07-15T02:38:26.663Z,71.60
2018-07-15T02:40:55.126Z,71.30
2018-07-15T02:43:23.371Z,71.60
2018-07-15T02:45:51.658Z,71.60
2018-07-15T02:48:20.751Z,71.50
2018-07-15T02:50:48.980Z,71.50
2018-07-15T02:53:17.243Z,71.50
2018-07-15T02:55:45.989Z,71.40
2018-07-15T02:58:14.274Z,71.50
2018-07-15T03:00:42.527Z,71.40
2018-07-15T03:03:11.035Z,71.40
2018-07-15T03:05:39.303Z,71.40
2018-07-15T03:08:09.631Z,71.40
2018-07-15T03:10:38.410Z,71.40
2018-07-15T03:13:06.688Z,71.40
2018-07-15T03:15:34.939Z,71.40
2018-07-15T03:18:03.660Z,71.40
2018-07-15T03:20:31.926Z,71.30
2018-07-15T03:23:00.261Z,71.30
2018-07-15T03:25:29.128Z,72.00
2018-07-15T03:27:57.391Z,71.40
2018-07-15T03:30:25.691Z,71.40
2018-07-15T03:32:54.250Z,71.40
2018-07-15T03:35:22.703Z,71.70
2018-07-15T03:37:50.959Z,71.20
2018-07-15T03:40:19.527Z,71.30
2018-07-15T03:42:47.779Z,71.20
2018-07-15T03:45:16.101Z,71.30
2018-07-15T03:47:44.603Z,71.20
2018-07-15T03:50:12.846Z,71.20
2018-07-15T03:52:41.211Z,71.20
2018-07-15T03:55:09.860Z,71.10
2018-07-15T03:57:38.281Z,71.10
2018-07-15T04:00:06.594Z,71.10
2018-07-15T04:02:35.410Z,71.10
2018-07-15T04:05:03.714Z,71.10
2018-07-15T04:07:33.706Z,71.10
2018-07-15T04:10:01.968Z,71.00
2018-07-15T04:12:30.458Z,71.00
2018-07-15T04:14:58.779Z,71.00
2018-07-15T04:17:27.033Z,71.00
2018-07-15T04:19:55.358Z,71.00
2018-07-15T04:22:24.081Z,71.00
2018-07-15T04:24:52.562Z,71.00
2018-07-15T04:27:20.837Z,70.50
2018-07-15T04:29:49.146Z,71.00
2018-07-15T04:32:17.469Z,71.00
2018-07-15T04:34:45.715Z,71.00
2018-07-15T04:37:14.145Z,71.00
2018-07-15T04:39:42.406Z,71.00
2018-07-15T04:42:10.646Z,70.90
2018-07-15T04:44:39.111Z,70.90
2018-07-15T04:47:07.358Z,70.90
2018-07-15T04:49:35.637Z,70.90
2018-07-15T04:52:03.934Z,70.90
2018-07-15T04:54:32.163Z,70.90
2018-07-15T04:57:00.507Z,70.90
2018-07-15T05:01:57.013Z,70.80
2018-07-15T05:06:53.477Z,70.80
2018-07-15T05:09:21.751Z,70.80
2018-07-15T05:11:49.978Z,71.50
2018-07-15T05:14:19.445Z,70.80
2018-07-15T05:16:47.707Z,70.70
2018-07-15T05:19:16.087Z,70.80
2018-07-15T05:21:44.877Z,70.70
2018-07-15T05:24:14.795Z,70.70
2018-07-15T05:26:43.068Z,70.70
2018-07-15T05:29:11.419Z,70.70
2018-07-15T05:31:39.702Z,70.70
2018-07-15T05:34:08.022Z,70.70
2018-07-15T05:36:36.346Z,70.70
2018-07-15T05:39:05.586Z,70.70
2018-07-15T05:41:33.852Z,70.70
2018-07-15T05:44:02.122Z,70.70
2018-07-15T05:46:30.463Z,70.60
2018-07-15T05:48:58.966Z,70.70
2018-07-15T05:51:27.287Z,70.70
2018-07-15T05:53:55.539Z,70.60
2018-07-15T05:56:23.876Z,70.60
2018-07-15T05:58:52.511Z,70.70
2018-07-15T06:01:20.736Z,70.60
2018-07-15T06:03:49.000Z,70.60
2018-07-15T06:06:17.543Z,70.70
2018-07-15T06:08:47.349Z,70.60
2018-07-15T06:11:15.707Z,70.70
2018-07-15T06:13:44.015Z,70.70
2018-07-15T06:16:12.306Z,70.70
2018-07-15T06:18:40.592Z,70.70
2018-07-15T06:21:09.058Z,70.70
2018-07-15T06:23:37.463Z,70.60
2018-07-15T06:26:05.723Z,70.70
2018-07-15T06:28:34.292Z,70.70
2018-07-15T06:31:02.616Z,70.70
2018-07-15T06:33:30.829Z,70.70
2018-07-15T06:35:59.331Z,70.60
2018-07-15T06:38:27.665Z,70.60
2018-07-15T06:40:55.881Z,70.70
2018-07-15T06:43:24.360Z,70.70
2018-07-15T06:45:52.641Z,70.80
2018-07-15T06:48:20.921Z,71.00
2018-07-15T06:50:49.702Z,71.30
2018-07-15T06:53:18.067Z,71.40
2018-07-15T06:55:46.395Z,71.50
2018-07-15T06:58:14.843Z,71.70
2018-07-15T07:00:43.110Z,71.80
2018-07-15T07:03:11.394Z,71.90
2018-07-15T07:05:39.683Z,71.90
2018-07-15T07:08:09.998Z,72.00
2018-07-15T07:10:38.275Z,72.10
2018-07-15T07:13:06.995Z,72.10
2018-07-15T07:15:35.250Z,72.10
2018-07-15T07:18:03.554Z,72.10
2018-07-15T07:20:32.364Z,72.30
2018-07-15T07:23:00.570Z,72.20
2018-07-15T07:25:28.920Z,72.10
2018-07-15T07:27:57.631Z,72.10
2018-07-15T07:30:25.917Z,72.00
2018-07-15T07:32:54.356Z,72.10
2018-07-15T07:35:22.723Z,72.40
2018-07-15T07:37:51.067Z,72.80
2018-07-15T07:40:19.415Z,73.00
2018-07-15T07:42:48.137Z,73.30
2018-07-15T07:45:16.401Z,73.80
2018-07-15T07:47:44.640Z,73.70
2018-07-15T07:50:13.686Z,74.20
2018-07-15T07:52:41.983Z,74.50
2018-07-15T07:55:10.299Z,74.40
2018-07-15T07:57:38.815Z,74.50
2018-07-15T08:00:07.253Z,75.10
2018-07-15T08:02:35.511Z,75.30
2018-07-15T08:05:04.156Z,75.50
2018-07-15T08:07:33.464Z,75.50
2018-07-15T08:10:02.003Z,76.20
2018-07-15T08:12:30.375Z,75.30
2018-07-15T08:14:58.834Z,75.40
2018-07-15T08:17:27.494Z,75.00
2018-07-15T08:19:55.742Z,75.10
2018-07-15T08:22:24.166Z,75.30
2018-07-15T08:24:52.723Z,74.90
2018-07-15T08:27:21.075Z,75.00
2018-07-15T08:30:00.847Z,75.50
2018-07-15T08:32:29.230Z,75.20
2018-07-15T08:34:57.504Z,75.10
2018-07-15T08:37:25.942Z,75.10
2018-07-15T08:39:54.203Z,74.80
2018-07-15T08:42:22.491Z,74.80
2018-07-15T08:44:52.146Z,74.70
2018-07-15T08:47:20.430Z,75.00
2018-07-15T08:49:48.767Z,75.50
2018-07-15T08:52:17.528Z,75.20
2018-07-15T08:54:45.923Z,74.90
2018-07-15T08:57:14.146Z,75.30
2018-07-15T08:59:42.654Z,75.80
2018-07-15T09:02:10.996Z,75.00
2018-07-15T09:04:39.274Z,75.10
2018-07-15T09:07:10.412Z,75.00
2018-07-15T09:09:38.783Z,74.80
2018-07-15T09:12:07.335Z,74.80
2018-07-15T09:14:35.707Z,74.90
2018-07-15T09:17:04.151Z,75.60
2018-07-15T09:19:32.471Z,75.20
2018-07-15T09:22:01.157Z,75.50
2018-07-15T09:24:29.482Z,75.20
2018-07-15T09:26:57.819Z,75.20
2018-07-15T09:29:26.765Z,75.40
2018-07-15T09:31:55.047Z,75.10
2018-07-15T09:34:23.354Z,74.90
2018-07-15T09:36:52.123Z,74.80
2018-07-15T09:39:20.428Z,74.60
2018-07-15T09:41:48.730Z,74.40
2018-07-15T09:44:17.052Z,74.40
2018-07-15T09:46:45.390Z,74.40
2018-07-15T09:49:13.795Z,74.30
2018-07-15T09:51:43.539Z,73.70
2018-07-15T09:54:11.926Z,73.40
2018-07-15T09:56:40.380Z,73.70
2018-07-15T09:59:09.262Z,73.80
2018-07-15T10:01:37.587Z,73.90
2018-07-15T10:04:06.017Z,73.90
2018-07-15T10:06:34.357Z,73.90
2018-07-15T10:09:05.746Z,74.10
2018-07-15T10:11:34.050Z,74.10
2018-07-15T10:14:02.416Z,74.10
2018-07-15T10:16:30.740Z,74.50
2018-07-15T10:18:59.223Z,74.20
2018-07-15T10:21:27.649Z,74.20
2018-07-15T10:23:55.969Z,74.30
2018-07-15T10:26:25.117Z,74.30
2018-07-15T10:28:53.505Z,74.40
2018-07-15T10:31:21.828Z,74.30
2018-07-15T10:33:50.362Z,74.50
2018-07-15T10:36:18.791Z,74.50
2018-07-15T10:38:47.134Z,75.30
2018-07-15T10:41:15.567Z,74.70
2018-07-15T10:43:43.883Z,74.90
2018-07-15T10:46:12.154Z,74.90
2018-07-15T10:48:40.770Z,75.10
2018-07-15T10:51:09.216Z,75.40
2018-07-15T10:53:37.600Z,75.50
2018-07-15T10:56:05.968Z,75.50
2018-07-15T10:58:34.519Z,75.50
2018-07-15T11:01:02.992Z,76.70
2018-07-15T11:03:31.582Z,79.60
2018-07-15T11:05:59.899Z,81.00
2018-07-15T11:08:30.095Z,83.20
2018-07-15T11:10:58.364Z,82.60
2018-07-15T11:13:26.752Z,80.70
2018-07-15T11:15:55.355Z,84.90
2018-07-15T11:18:23.838Z,87.70
2018-07-15T11:20:52.238Z,87.20
2018-07-15T11:23:20.823Z,85.70
2018-07-15T11:25:49.169Z,88.30
2018-07-15T11:28:17.577Z,86.70
2018-07-15T11:30:47.140Z,90.10
2018-07-15T11:33:15.530Z,88.50
2018-07-15T11:35:43.830Z,89.20
2018-07-15T11:38:12.153Z,89.80
2018-07-15T11:43:08.556Z,91.20
2018-07-15T11:45:37.073Z,90.80
2018-07-15T11:48:05.427Z,89.60
2018-07-15T11:50:33.831Z,91.10
2018-07-15T11:53:03.024Z,92.30
2018-07-15T11:55:31.400Z,91.80
2018-07-15T11:57:59.820Z,92.30
2018-07-15T12:00:28.459Z,91.70
2018-07-15T12:02:56.850Z,84.60
2018-07-15T12:05:25.115Z,83.90
2018-07-15T12:07:55.081Z,77.80
2018-07-15T12:10:23.379Z,72.10
2018-07-15T12:12:51.741Z,69.80
2018-07-15T12:15:20.165Z,70.30
2018-07-15T12:17:48.407Z,72.00
2018-07-15T12:20:16.775Z,73.60
2018-07-15T12:22:45.199Z,74.10
2018-07-15T12:25:13.551Z,74.90
2018-07-15T12:27:41.924Z,74.30
2018-07-15T12:30:10.691Z,70.80
2018-07-15T12:32:38.991Z,70.10
2018-07-15T12:35:07.416Z,70.60
2018-07-15T12:37:35.983Z,74.30
2018-07-15T12:40:04.331Z,76.20
2018-07-15T12:42:32.728Z,77.10
2018-07-15T12:45:01.211Z,79.10
2018-07-15T12:47:29.551Z,79.80
2018-07-15T12:49:57.946Z,78.20
2018-07-15T12:52:27.296Z,79.90
2018-07-15T12:54:55.596Z,77.50
2018-07-15T12:57:23.931Z,78.60
2018-07-15T12:59:52.653Z,78.30
2018-07-15T13:02:20.973Z,77.80
2018-07-15T13:04:49.303Z,77.60
2018-07-15T13:07:24.278Z,78.50
2018-07-15T13:09:52.593Z,78.50
2018-07-15T13:12:20.963Z,78.20
2018-07-15T13:14:49.590Z,78.20
2018-07-15T13:17:17.941Z,78.20
2018-07-15T13:19:46.264Z,78.10
2018-07-15T13:22:14.561Z,78.20
2018-07-15T13:24:42.891Z,78.10
2018-07-15T13:27:11.356Z,77.90
2018-07-15T13:29:40.809Z,77.80
2018-07-15T13:32:09.014Z,77.70
2018-07-15T13:34:37.296Z,77.80
2018-07-15T13:37:06.130Z,77.50
2018-07-15T13:39:34.584Z,77.40
2018-07-15T13:42:03.029Z,77.30
2018-07-15T13:44:31.543Z,77.40
2018-07-15T13:46:59.981Z,77.80
2018-07-15T13:49:28.399Z,78.30
2018-07-15T13:51:57.534Z,77.40
2018-07-15T13:54:25.991Z,77.30
2018-07-15T13:56:54.374Z,78.10
2018-07-15T13:59:23.052Z,77.40
2018-07-15T14:01:51.621Z,77.30
2018-07-15T14:04:20.222Z,77.70
2018-07-15T14:06:48.516Z,77.80
2018-07-15T14:09:19.441Z,78.00
2018-07-15T14:11:47.856Z,78.20
2018-07-15T14:14:16.117Z,78.20
2018-07-15T14:16:44.459Z,78.00
2018-07-15T14:19:13.048Z,78.00
2018-07-15T14:21:41.350Z,79.20
2018-07-15T14:24:09.664Z,85.10
2018-07-15T14:26:38.295Z,79.50
2018-07-15T14:29:06.658Z,79.30
2018-07-15T14:31:35.127Z,79.00
2018-07-15T14:34:03.667Z,78.60
2018-07-15T14:36:31.979Z,78.30
2018-07-15T14:39:00.372Z,78.00
2018-07-15T14:41:28.946Z,78.00
2018-07-15T14:43:57.251Z,78.00
2018-07-15T14:46:25.568Z,78.00
2018-07-15T14:48:54.643Z,78.00
2018-07-15T14:51:22.907Z,78.20
2018-07-15T14:53:51.336Z,78.70
2018-07-15T14:56:19.730Z,78.90
2018-07-15T14:58:48.228Z,78.70
2018-07-15T15:01:16.637Z,78.60
2018-07-15T15:03:45.231Z,78.60
2018-07-15T15:06:13.654Z,78.70
2018-07-15T15:08:43.722Z,78.70
2018-07-15T15:11:12.799Z,79.10
2018-07-15T15:13:41.383Z,79.30
2018-07-15T15:16:09.998Z,79.40
2018-07-15T15:18:38.488Z,79.70
2018-07-15T15:21:07.003Z,79.30
2018-07-15T15:23:35.465Z,77.60
2018-07-15T15:26:03.759Z,77.00
2018-07-15T15:28:32.115Z,76.60
2018-07-15T15:31:01.366Z,76.00
2018-07-15T15:33:29.739Z,75.00
2018-07-15T15:35:58.083Z,78.50
2018-07-15T15:38:26.687Z,82.90
2018-07-15T15:40:54.954Z,84.60
2018-07-15T15:43:23.255Z,85.20
2018-07-15T15:45:52.064Z,85.80
2018-07-15T15:48:20.347Z,87.70
2018-07-15T15:50:48.762Z,84.90
2018-07-15T15:55:46.434Z,91.80
2018-07-15T15:58:14.944Z,89.90
2018-07-15T16:00:43.194Z,90.20
2018-07-15T16:03:11.572Z,91.10
2018-07-15T16:05:40.331Z,91.10
2018-07-15T16:08:10.438Z,90.40
2018-07-15T16:10:38.762Z,89.40
2018-07-15T16:13:07.729Z,89.70
2018-07-15T16:15:36.501Z,91.40
2018-07-15T16:18:04.883Z,92.90
2018-07-15T16:20:33.471Z,93.40
2018-07-15T16:23:01.771Z,91.90
2018-07-15T16:25:30.120Z,93.30
2018-07-15T16:27:59.524Z,92.60
2018-07-15T16:30:28.099Z,91.80
2018-07-15T16:32:56.339Z,91.20
2018-07-15T16:35:25.064Z,91.00
2018-07-15T16:37:53.708Z,90.80
2018-07-15T16:40:22.075Z,90.40
2018-07-15T16:42:51.036Z,90.50
2018-07-15T16:45:19.379Z,92.00
2018-07-15T16:47:47.696Z,93.00
2018-07-15T16:50:16.255Z,94.60
2018-07-15T16:52:44.659Z,94.40
2018-07-15T16:55:13.024Z,92.70
2018-07-15T16:57:41.484Z,92.30
2018-07-15T17:00:09.774Z,93.50
2018-07-15T17:02:38.138Z,93.30
2018-07-15T17:05:06.874Z,90.90
2018-07-15T17:07:37.398Z,90.30
2018-07-15T17:10:05.818Z,89.90
2018-07-15T17:12:34.263Z,89.20
2018-07-15T17:15:02.846Z,89.80
2018-07-15T17:17:31.221Z,88.70
2018-07-15T17:19:59.955Z,88.20
2018-07-15T17:22:28.275Z,87.40
2018-07-15T17:24:56.721Z,86.60
2018-07-15T17:27:26.264Z,86.00
2018-07-15T17:29:54.566Z,85.30
2018-07-15T17:32:22.907Z,84.90
2018-07-15T17:34:51.283Z,84.20
2018-07-15T17:37:19.659Z,83.50
2018-07-15T17:39:47.936Z,83.60
2018-07-15T17:42:16.340Z,83.20
2018-07-15T17:44:44.695Z,83.20
2018-07-15T17:47:13.226Z,83.30
2018-07-15T17:49:41.884Z,83.00
2018-07-15T17:52:10.222Z,82.60
2018-07-15T17:54:41.961Z,82.10
2018-07-15T17:57:10.324Z,79.90
2018-07-15T17:59:38.666Z,80.80
2018-07-15T18:02:06.950Z,80.90
2018-07-15T18:04:35.369Z,80.70
2018-07-15T18:07:03.568Z,80.50
2018-07-15T18:09:33.631Z,80.20
2018-07-15T18:12:02.026Z,80.10
2018-07-15T18:14:30.406Z,80.20
2018-07-15T18:16:59.100Z,80.00
2018-07-15T18:19:27.724Z,80.20
2018-07-15T18:21:57.104Z,81.60
2018-07-15T18:24:25.609Z,81.80
2018-07-15T18:26:55.424Z,82.10
2018-07-15T18:29:23.729Z,82.90
2018-07-15T18:31:52.185Z,83.50
2018-07-15T18:34:20.552Z,83.70
2018-07-15T18:36:48.991Z,83.00
2018-07-15T18:39:17.518Z,82.30
2018-07-15T18:41:45.924Z,80.90
2018-07-15T18:44:14.566Z,80.60
2018-07-15T18:46:44.653Z,80.30
2018-07-15T18:49:13.152Z,80.00
2018-07-15T18:51:41.742Z,79.90
2018-07-15T18:54:10.434Z,79.70
2018-07-15T18:56:38.899Z,80.60
2018-07-15T18:59:07.423Z,80.80
2018-07-15T19:01:35.826Z,80.50
2018-07-15T19:04:04.218Z,80.30
2018-07-15T19:06:32.700Z,80.30
2018-07-15T19:09:03.035Z,81.20
2018-07-15T19:11:31.466Z,80.70
2018-07-15T19:13:59.917Z,81.00
2018-07-15T19:16:28.466Z,81.50
2018-07-15T19:18:57.284Z,81.20
2018-07-15T19:21:25.747Z,81.20
2018-07-15T19:23:55.512Z,81.30
2018-07-15T19:26:25.618Z,81.40
2018-07-15T19:31:22.530Z,81.40
2018-07-15T19:33:51.125Z,81.50
2018-07-15T19:36:19.611Z,81.50
2018-07-15T19:38:48.298Z,81.60
2018-07-15T19:41:16.700Z,81.60
2018-07-15T19:43:45.171Z,81.90
2018-07-15T19:46:14.358Z,81.80
2018-07-15T19:48:42.731Z,81.70
2018-07-15T19:51:11.156Z,82.20
2018-07-15T19:53:39.602Z,82.80
2018-07-15T19:56:07.989Z,82.70
2018-07-15T19:58:36.463Z,82.60
2018-07-15T20:01:05.109Z,81.70
2018-07-15T20:03:33.474Z,81.10
2018-07-15T20:06:02.070Z,81.40
2018-07-15T20:08:32.694Z,80.50
2018-07-15T20:11:01.190Z,80.40
2018-07-15T20:13:29.538Z,80.40
2018-07-15T20:15:57.984Z,80.30
2018-07-15T20:18:26.324Z,80.70
2018-07-15T20:20:54.864Z,80.70
2018-07-15T20:23:23.271Z,80.40
2018-07-15T20:25:51.691Z,80.40
2018-07-15T20:28:20.074Z,80.40
2018-07-15T20:30:48.759Z,80.30
2018-07-15T20:33:17.137Z,80.30
2018-07-15T20:35:45.451Z,80.30
2018-07-15T20:38:13.999Z,80.30
2018-07-15T20:40:42.424Z,80.20
2018-07-15T20:45:39.299Z,80.10
2018-07-15T20:48:07.582Z,80.10
2018-07-15T20:50:36.006Z,80.00
2018-07-15T20:53:04.912Z,80.00
2018-07-15T20:55:33.227Z,80.00
2018-07-15T20:58:01.577Z,80.00
2018-07-15T21:00:30.007Z,79.90
2018-07-15T21:02:58.680Z,79.90
2018-07-15T21:05:27.034Z,80.30
2018-07-15T21:07:57.207Z,80.00
2018-07-15T21:10:30.739Z,80.00
2018-07-15T21:12:59.118Z,79.90
2018-07-15T21:15:27.440Z,79.80
2018-07-15T21:17:55.799Z,79.70
2018-07-15T21:20:24.518Z,79.60
2018-07-15T21:22:52.937Z,79.60
2018-07-15T21:25:21.320Z,79.70
2018-07-15T21:27:50.795Z,79.50
2018-07-15T21:30:19.047Z,79.60
2018-07-15T21:32:47.413Z,79.60
2018-07-15T21:35:16.250Z,79.60
2018-07-15T21:37:44.756Z,79.60
2018-07-15T21:40:13.107Z,79.60
2018-07-15T21:42:41.787Z,79.70
2018-07-15T21:45:10.089Z,79.60
2018-07-15T21:47:38.398Z,79.50
2018-07-15T21:50:07.264Z,79.50
2018-07-15T21:52:35.767Z,79.50
2018-07-15T21:55:04.064Z,79.50
2018-07-15T21:57:32.685Z,79.50
2018-07-15T22:00:00.959Z,79.50
2018-07-15T22:02:29.381Z,79.40
2018-07-15T22:04:58.966Z,80.10
2018-07-15T22:07:41.462Z,80.10
2018-07-15T22:10:17.616Z,79.40
2018-07-15T22:12:45.955Z,79.40
2018-07-15T22:15:14.452Z,79.40
2018-07-15T22:17:42.895Z,79.30
2018-07-15T22:20:11.304Z,79.30
2018-07-15T22:22:39.713Z,79.30
2018-07-15T22:25:08.291Z,79.20
2018-07-15T22:27:36.799Z,79.20
2018-07-15T22:30:05.084Z,79.20
2018-07-15T22:32:33.642Z,79.10
2018-07-15T22:35:01.906Z,79.30
2018-07-15T22:37:30.171Z,79.10
2018-07-15T22:39:58.457Z,79.10
2018-07-15T22:42:26.858Z,79.10
2018-07-15T22:44:55.176Z,79.00
2018-07-15T22:47:23.525Z,79.70
2018-07-15T22:49:51.883Z,79.00
2018-07-15T22:52:20.166Z,78.90
2018-07-15T22:54:48.767Z,79.60
2018-07-15T22:57:17.026Z,78.90
2018-07-15T22:59:45.473Z,78.80
2018-07-15T23:02:14.912Z,78.80
2018-07-15T23:05:56.237Z,78.80
2018-07-15T23:08:26.941Z,78.70
2018-07-15T23:10:55.206Z,78.80
2018-07-15T23:13:23.482Z,78.80
2018-07-15T23:15:52.187Z,78.70
2018-07-15T23:18:20.595Z,78.70
2018-07-15T23:20:49.618Z,78.70
2018-07-15T23:23:18.207Z,78.70
2018-07-15T23:25:46.434Z,78.60
2018-07-15T23:28:15.661Z,78.60
2018-07-15T23:30:44.502Z,78.60
2018-07-15T23:33:13.219Z,78.60
2018-07-15T23:38:10.149Z,78.60
2018-07-15T23:40:38.594Z,78.50
2018-07-15T23:43:06.963Z,78.50
2018-07-15T23:45:36.109Z,78.40
2018-07-15T23:48:04.479Z,79.10
2018-07-15T23:50:32.746Z,78.40
2018-07-15T23:53:01.552Z,78.30
2018-07-15T23:55:29.978Z,78.30
2018-07-15T23:57:58.299Z,78.30
